sensor_id;sensor_type;location;lat;lon;timestamp;P1;durP1;ratioP1;P2;durP2;ratioP2
20945;SDS011;10632;51.276;7.116;2022-09-03T00:01:09;2.45;;;1.15;;
20945;SDS011;10632;51.276;7.116;2022-09-03T00:03:43;2.35;;;1.10;;
20945;SDS011;10632;51.276;7.116;2022-09-03T00:06:17;4.05;;;1.30;;
20945;SDS011;10632;51.276;7.116;2022-09-03T00:08:49;2.22;;;1.15;;
20945;SDS011;10632;51.276;7.116;2022-09-03T00:11:25;1.95;;;1.10;;
20945;SDS011;10632;51.276;7.116;2022-09-03T00:13:59;2.90;;;1.10;;
20945;SDS011;10632;51.276;7.116;2022-09-03T00:16:33;2.47;;;1.23;;
20945;SDS011;10632;51.276;7.116;2022-09-03T00:19:15;2.15;;;1.08;;
20945;SDS011;10632;51.276;7.116;2022-09-03T00:21:48;4.35;;;1.10;;
20945;SDS011;10632;51.276;7.116;2022-09-03T00:24:18;1.92;;;1.10;;
20945;SDS011;10632;51.276;7.116;2022-09-03T00:26:49;2.75;;;1.17;;
20945;SDS011;10632;51.276;7.116;2022-09-03T00:29:22;2.15;;;1.00;;
20945;SDS011;10632;51.276;7.116;2022-09-03T00:31:53;2.55;;;1.10;;
20945;SDS011;10632;51.276;7.116;2022-09-03T00:34:25;2.47;;;1.00;;
20945;SDS011;10632;51.276;7.116;2022-09-03T00:36:56;2.72;;;1.10;;
20945;SDS011;10632;51.276;7.116;2022-09-03T00:39:24;2.05;;;1.02;;
20945;SDS011;10632;51.276;7.116;2022-09-03T00:41:56;2.25;;;1.08;;
20945;SDS011;10632;51.276;7.116;2022-09-03T00:44:55;2.83;;;1.00;;
20945;SDS011;10632;51.276;7.116;2022-09-03T00:47:29;3.97;;;1.30;;
20945;SDS011;10632;51.276;7.116;2022-09-03T00:50:06;1.90;;;1.00;;
20945;SDS011;10632;51.276;7.116;2022-09-03T00:52:43;1.73;;;0.90;;
20945;SDS011;10632;51.276;7.116;2022-09-03T00:55:21;2.47;;;0.98;;
20945;SDS011;10632;51.276;7.116;2022-09-03T00:58:00;2.67;;;1.08;;
20945;SDS011;10632;51.276;7.116;2022-09-03T01:00:34;2.42;;;1.10;;
20945;SDS011;10632;51.276;7.116;2022-09-03T01:03:04;1.60;;;0.93;;
20945;SDS011;10632;51.276;7.116;2022-09-03T01:05:39;1.98;;;1.00;;
20945;SDS011;10632;51.276;7.116;2022-09-03T01:08:19;2.05;;;1.13;;
20945;SDS011;10632;51.276;7.116;2022-09-03T01:10:58;1.60;;;0.95;;
20945;SDS011;10632;51.276;7.116;2022-09-03T01:13:35;3.55;;;1.15;;
20945;SDS011;10632;51.276;7.116;2022-09-03T01:16:11;3.60;;;0.98;;
20945;SDS011;10632;51.276;7.116;2022-09-03T01:18:51;1.25;;;0.80;;
20945;SDS011;10632;51.276;7.116;2022-09-03T01:24:41;3.22;;;1.10;;
20945;SDS011;10632;51.276;7.116;2022-09-03T01:27:26;3.15;;;1.10;;
20945;SDS011;10632;51.276;7.116;2022-09-03T01:30:06;1.65;;;1.00;;
20945;SDS011;10632;51.276;7.116;2022-09-03T01:32:36;2.03;;;1.00;;
20945;SDS011;10632;51.276;7.116;2022-09-03T01:35:10;3.70;;;0.85;;
20945;SDS011;10632;51.276;7.116;2022-09-03T01:37:47;1.35;;;0.90;;
20945;SDS011;10632;51.276;7.116;2022-09-03T01:40:29;3.13;;;1.10;;
20945;SDS011;10632;51.276;7.116;2022-09-03T01:43:08;2.15;;;0.90;;
20945;SDS011;10632;51.276;7.116;2022-09-03T01:45:51;2.17;;;1.02;;
20945;SDS011;10632;51.276;7.116;2022-09-03T01:48:30;2.15;;;0.95;;
20945;SDS011;10632;51.276;7.116;2022-09-03T01:51:07;1.90;;;1.00;;
20945;SDS011;10632;51.276;7.116;2022-09-03T01:53:45;2.28;;;1.10;;
20945;SDS011;10632;51.276;7.116;2022-09-03T01:56:48;1.83;;;1.10;;
20945;SDS011;10632;51.276;7.116;2022-09-03T01:59:26;1.60;;;0.93;;
20945;SDS011;10632;51.276;7.116;2022-09-03T02:01:59;1.70;;;0.90;;
20945;SDS011;10632;51.276;7.116;2022-09-03T02:04:31;1.60;;;0.90;;
20945;SDS011;10632;51.276;7.116;2022-09-03T02:06:58;1.83;;;0.90;;
20945;SDS011;10632;51.276;7.116;2022-09-03T02:09:26;1.98;;;0.80;;
20945;SDS011;10632;51.276;7.116;2022-09-03T02:11:54;1.85;;;1.00;;
20945;SDS011;10632;51.276;7.116;2022-09-03T02:14:29;1.98;;;1.08;;
20945;SDS011;10632;51.276;7.116;2022-09-03T02:16:57;1.92;;;0.93;;
20945;SDS011;10632;51.276;7.116;2022-09-03T02:19:27;1.60;;;0.90;;
20945;SDS011;10632;51.276;7.116;2022-09-03T02:21:56;2.22;;;0.98;;
20945;SDS011;10632;51.276;7.116;2022-09-03T02:24:23;2.20;;;1.10;;
20945;SDS011;10632;51.276;7.116;2022-09-03T02:26:51;2.10;;;1.10;;
20945;SDS011;10632;51.276;7.116;2022-09-03T02:29:21;1.48;;;0.90;;
20945;SDS011;10632;51.276;7.116;2022-09-03T02:31:49;2.00;;;0.90;;
20945;SDS011;10632;51.276;7.116;2022-09-03T02:34:17;1.50;;;0.90;;
20945;SDS011;10632;51.276;7.116;2022-09-03T02:36:45;1.42;;;0.77;;
20945;SDS011;10632;51.276;7.116;2022-09-03T02:39:13;2.15;;;1.08;;
20945;SDS011;10632;51.276;7.116;2022-09-03T02:41:40;2.03;;;0.90;;
20945;SDS011;10632;51.276;7.116;2022-09-03T02:44:08;2.40;;;1.00;;
20945;SDS011;10632;51.276;7.116;2022-09-03T02:46:42;2.20;;;1.10;;
20945;SDS011;10632;51.276;7.116;2022-09-03T02:49:12;1.55;;;0.80;;
20945;SDS011;10632;51.276;7.116;2022-09-03T02:51:43;1.67;;;0.90;;
20945;SDS011;10632;51.276;7.116;2022-09-03T02:54:11;1.52;;;1.00;;
20945;SDS011;10632;51.276;7.116;2022-09-03T02:56:39;1.67;;;0.85;;
20945;SDS011;10632;51.276;7.116;2022-09-03T02:59:07;2.53;;;1.10;;
20945;SDS011;10632;51.276;7.116;2022-09-03T03:01:34;1.95;;;0.90;;
20945;SDS011;10632;51.276;7.116;2022-09-03T03:04:02;1.52;;;0.90;;
20945;SDS011;10632;51.276;7.116;2022-09-03T03:06:29;3.70;;;1.00;;
20945;SDS011;10632;51.276;7.116;2022-09-03T03:08:58;2.55;;;0.95;;
20945;SDS011;10632;51.276;7.116;2022-09-03T03:11:25;1.80;;;1.00;;
20945;SDS011;10632;51.276;7.116;2022-09-03T03:13:53;2.63;;;0.88;;
20945;SDS011;10632;51.276;7.116;2022-09-03T03:16:20;2.05;;;1.00;;
20945;SDS011;10632;51.276;7.116;2022-09-03T03:18:49;1.23;;;0.77;;
20945;SDS011;10632;51.276;7.116;2022-09-03T03:21:17;3.70;;;1.00;;
20945;SDS011;10632;51.276;7.116;2022-09-03T03:23:44;2.45;;;1.08;;
20945;SDS011;10632;51.276;7.116;2022-09-03T03:26:13;9.63;;;1.17;;
20945;SDS011;10632;51.276;7.116;2022-09-03T03:28:43;1.65;;;0.88;;
20945;SDS011;10632;51.276;7.116;2022-09-03T03:31:14;1.90;;;0.90;;
20945;SDS011;10632;51.276;7.116;2022-09-03T03:33:42;4.35;;;1.10;;
20945;SDS011;10632;51.276;7.116;2022-09-03T03:36:10;1.95;;;0.93;;
20945;SDS011;10632;51.276;7.116;2022-09-03T03:38:39;1.88;;;1.05;;
20945;SDS011;10632;51.276;7.116;2022-09-03T03:41:07;2.63;;;1.10;;
20945;SDS011;10632;51.276;7.116;2022-09-03T03:43:36;2.13;;;1.08;;
20945;SDS011;10632;51.276;7.116;2022-09-03T03:46:04;2.33;;;0.95;;
20945;SDS011;10632;51.276;7.116;2022-09-03T03:48:32;1.85;;;1.00;;
20945;SDS011;10632;51.276;7.116;2022-09-03T03:51:00;3.75;;;0.75;;
20945;SDS011;10632;51.276;7.116;2022-09-03T03:53:28;2.67;;;1.02;;
20945;SDS011;10632;51.276;7.116;2022-09-03T03:55:56;2.65;;;1.00;;
20945;SDS011;10632;51.276;7.116;2022-09-03T03:58:24;1.90;;;0.90;;
20945;SDS011;10632;51.276;7.116;2022-09-03T04:00:53;1.73;;;1.00;;
20945;SDS011;10632;51.276;7.116;2022-09-03T04:03:20;1.48;;;0.90;;
20945;SDS011;10632;51.276;7.116;2022-09-03T04:05:56;1.60;;;0.90;;
20945;SDS011;10632;51.276;7.116;2022-09-03T04:08:24;1.65;;;0.80;;
20945;SDS011;10632;51.276;7.116;2022-09-03T04:10:51;1.70;;;1.00;;
20945;SDS011;10632;51.276;7.116;2022-09-03T04:13:19;3.03;;;0.82;;
20945;SDS011;10632;51.276;7.116;2022-09-03T04:15:46;1.45;;;0.82;;
20945;SDS011;10632;51.276;7.116;2022-09-03T04:18:14;1.88;;;0.95;;
20945;SDS011;10632;51.276;7.116;2022-09-03T04:20:41;4.35;;;0.98;;
20945;SDS011;10632;51.276;7.116;2022-09-03T04:23:08;2.10;;;1.05;;
20945;SDS011;10632;51.276;7.116;2022-09-03T04:25:35;1.77;;;0.98;;
20945;SDS011;10632;51.276;7.116;2022-09-03T04:28:02;4.57;;;1.23;;
20945;SDS011;10632;51.276;7.116;2022-09-03T04:30:29;1.80;;;0.90;;
20945;SDS011;10632;51.276;7.116;2022-09-03T04:32:56;2.08;;;0.90;;
20945;SDS011;10632;51.276;7.116;2022-09-03T04:35:25;1.52;;;0.75;;
20945;SDS011;10632;51.276;7.116;2022-09-03T04:37:56;1.75;;;0.93;;
20945;SDS011;10632;51.276;7.116;2022-09-03T04:40:23;1.30;;;0.88;;
20945;SDS011;10632;51.276;7.116;2022-09-03T04:42:50;1.10;;;0.70;;
20945;SDS011;10632;51.276;7.116;2022-09-03T04:45:22;2.28;;;1.00;;
20945;SDS011;10632;51.276;7.116;2022-09-03T04:47:54;1.55;;;0.93;;
20945;SDS011;10632;51.276;7.116;2022-09-03T04:50:26;1.88;;;0.90;;
20945;SDS011;10632;51.276;7.116;2022-09-03T04:52:54;1.33;;;0.85;;
20945;SDS011;10632;51.276;7.116;2022-09-03T04:55:25;2.22;;;1.00;;
20945;SDS011;10632;51.276;7.116;2022-09-03T04:57:52;1.90;;;0.80;;
20945;SDS011;10632;51.276;7.116;2022-09-03T05:00:19;2.85;;;1.00;;
20945;SDS011;10632;51.276;7.116;2022-09-03T05:02:46;4.25;;;1.02;;
20945;SDS011;10632;51.276;7.116;2022-09-03T05:05:16;1.60;;;0.80;;
20945;SDS011;10632;51.276;7.116;2022-09-03T05:07:45;1.73;;;0.93;;
20945;SDS011;10632;51.276;7.116;2022-09-03T05:10:12;1.58;;;0.90;;
20945;SDS011;10632;51.276;7.116;2022-09-03T05:12:44;2.15;;;1.05;;
20945;SDS011;10632;51.276;7.116;2022-09-03T05:15:12;1.38;;;0.90;;
20945;SDS011;10632;51.276;7.116;2022-09-03T05:17:40;2.03;;;0.80;;
20945;SDS011;10632;51.276;7.116;2022-09-03T05:20:07;1.70;;;0.80;;
20945;SDS011;10632;51.276;7.116;2022-09-03T05:22:35;1.50;;;0.95;;
20945;SDS011;10632;51.276;7.116;2022-09-03T05:25:04;4.78;;;1.20;;
20945;SDS011;10632;51.276;7.116;2022-09-03T05:27:31;2.25;;;0.90;;
20945;SDS011;10632;51.276;7.116;2022-09-03T05:29:58;2.17;;;1.00;;
20945;SDS011;10632;51.276;7.116;2022-09-03T05:32:25;2.58;;;1.13;;
20945;SDS011;10632;51.276;7.116;2022-09-03T05:34:55;1.95;;;0.90;;
20945;SDS011;10632;51.276;7.116;2022-09-03T05:37:22;2.20;;;0.95;;
20945;SDS011;10632;51.276;7.116;2022-09-03T05:39:49;1.58;;;0.90;;
20945;SDS011;10632;51.276;7.116;2022-09-03T05:42:17;2.00;;;0.90;;
20945;SDS011;10632;51.276;7.116;2022-09-03T05:44:44;1.90;;;0.90;;
20945;SDS011;10632;51.276;7.116;2022-09-03T05:47:13;1.95;;;1.10;;
20945;SDS011;10632;51.276;7.116;2022-09-03T05:49:40;1.65;;;1.02;;
20945;SDS011;10632;51.276;7.116;2022-09-03T05:52:07;1.52;;;0.90;;
20945;SDS011;10632;51.276;7.116;2022-09-03T05:54:34;1.67;;;1.00;;
20945;SDS011;10632;51.276;7.116;2022-09-03T05:57:01;5.10;;;1.08;;
20945;SDS011;10632;51.276;7.116;2022-09-03T05:59:32;3.35;;;1.20;;
20945;SDS011;10632;51.276;7.116;2022-09-03T06:01:59;1.60;;;0.90;;
20945;SDS011;10632;51.276;7.116;2022-09-03T06:04:26;2.17;;;1.15;;
20945;SDS011;10632;51.276;7.116;2022-09-03T06:06:57;1.98;;;0.88;;
20945;SDS011;10632;51.276;7.116;2022-09-03T06:09:26;5.60;;;1.20;;
20945;SDS011;10632;51.276;7.116;2022-09-03T06:11:54;3.30;;;1.02;;
20945;SDS011;10632;51.276;7.116;2022-09-03T06:14:21;2.55;;;1.30;;
20945;SDS011;10632;51.276;7.116;2022-09-03T06:16:50;3.47;;;1.15;;
20945;SDS011;10632;51.276;7.116;2022-09-03T06:19:18;2.25;;;1.25;;
20945;SDS011;10632;51.276;7.116;2022-09-03T06:21:45;2.58;;;1.10;;
20945;SDS011;10632;51.276;7.116;2022-09-03T06:24:13;1.95;;;0.90;;
20945;SDS011;10632;51.276;7.116;2022-09-03T06:26:41;2.78;;;1.15;;
20945;SDS011;10632;51.276;7.116;2022-09-03T06:29:09;3.33;;;1.20;;
20945;SDS011;10632;51.276;7.116;2022-09-03T06:31:36;2.50;;;1.10;;
20945;SDS011;10632;51.276;7.116;2022-09-03T06:34:04;2.70;;;1.00;;
20945;SDS011;10632;51.276;7.116;2022-09-03T06:36:31;2.42;;;1.10;;
20945;SDS011;10632;51.276;7.116;2022-09-03T06:38:58;4.65;;;1.00;;
20945;SDS011;10632;51.276;7.116;2022-09-03T06:41:26;1.73;;;1.08;;
20945;SDS011;10632;51.276;7.116;2022-09-03T06:43:57;2.00;;;1.00;;
20945;SDS011;10632;51.276;7.116;2022-09-03T06:46:26;3.80;;;1.10;;
20945;SDS011;10632;51.276;7.116;2022-09-03T06:48:55;2.17;;;1.08;;
20945;SDS011;10632;51.276;7.116;2022-09-03T06:51:24;2.65;;;1.13;;
20945;SDS011;10632;51.276;7.116;2022-09-03T06:53:52;2.38;;;1.05;;
20945;SDS011;10632;51.276;7.116;2022-09-03T06:56:24;3.53;;;1.10;;
20945;SDS011;10632;51.276;7.116;2022-09-03T06:58:52;2.85;;;1.10;;
20945;SDS011;10632;51.276;7.116;2022-09-03T07:01:20;5.75;;;1.00;;
20945;SDS011;10632;51.276;7.116;2022-09-03T07:03:51;2.55;;;1.00;;
20945;SDS011;10632;51.276;7.116;2022-09-03T07:06:21;1.60;;;1.00;;
20945;SDS011;10632;51.276;7.116;2022-09-03T07:08:50;2.17;;;1.10;;
20945;SDS011;10632;51.276;7.116;2022-09-03T07:11:18;2.50;;;1.17;;
20945;SDS011;10632;51.276;7.116;2022-09-03T07:13:48;2.30;;;1.15;;
20945;SDS011;10632;51.276;7.116;2022-09-03T07:16:16;5.82;;;0.88;;
20945;SDS011;10632;51.276;7.116;2022-09-03T07:18:47;1.75;;;1.05;;
20945;SDS011;10632;51.276;7.116;2022-09-03T07:21:15;2.00;;;1.02;;
20945;SDS011;10632;51.276;7.116;2022-09-03T07:23:43;2.00;;;1.05;;
20945;SDS011;10632;51.276;7.116;2022-09-03T07:26:15;3.67;;;1.13;;
20945;SDS011;10632;51.276;7.116;2022-09-03T07:28:44;2.35;;;1.10;;
20945;SDS011;10632;51.276;7.116;2022-09-03T07:31:12;1.98;;;1.10;;
20945;SDS011;10632;51.276;7.116;2022-09-03T07:33:40;1.80;;;1.02;;
20945;SDS011;10632;51.276;7.116;2022-09-03T07:36:07;1.50;;;0.80;;
20945;SDS011;10632;51.276;7.116;2022-09-03T07:38:36;2.95;;;1.00;;
20945;SDS011;10632;51.276;7.116;2022-09-03T07:41:04;3.15;;;1.08;;
20945;SDS011;10632;51.276;7.116;2022-09-03T07:43:34;3.15;;;1.00;;
20945;SDS011;10632;51.276;7.116;2022-09-03T07:46:04;1.98;;;1.20;;
20945;SDS011;10632;51.276;7.116;2022-09-03T07:48:31;2.38;;;0.93;;
20945;SDS011;10632;51.276;7.116;2022-09-03T07:50:58;1.83;;;0.90;;
20945;SDS011;10632;51.276;7.116;2022-09-03T07:53:28;2.22;;;1.10;;
20945;SDS011;10632;51.276;7.116;2022-09-03T07:55:59;1.55;;;0.88;;
20945;SDS011;10632;51.276;7.116;2022-09-03T07:58:27;4.25;;;1.10;;
20945;SDS011;10632;51.276;7.116;2022-09-03T08:00:56;2.45;;;1.00;;
20945;SDS011;10632;51.276;7.116;2022-09-03T08:03:23;3.17;;;0.88;;
20945;SDS011;10632;51.276;7.116;2022-09-03T08:05:50;1.92;;;1.00;;
20945;SDS011;10632;51.276;7.116;2022-09-03T08:08:17;2.67;;;1.23;;
20945;SDS011;10632;51.276;7.116;2022-09-03T08:10:44;2.08;;;1.13;;
20945;SDS011;10632;51.276;7.116;2022-09-03T08:13:11;3.03;;;1.10;;
20945;SDS011;10632;51.276;7.116;2022-09-03T08:15:38;3.30;;;1.25;;
20945;SDS011;10632;51.276;7.116;2022-09-03T08:18:08;3.63;;;1.20;;
20945;SDS011;10632;51.276;7.116;2022-09-03T08:20:35;6.60;;;1.17;;
20945;SDS011;10632;51.276;7.116;2022-09-03T08:23:03;3.40;;;1.20;;
20945;SDS011;10632;51.276;7.116;2022-09-03T08:25:30;5.78;;;1.20;;
20945;SDS011;10632;51.276;7.116;2022-09-03T08:27:58;4.90;;;1.13;;
20945;SDS011;10632;51.276;7.116;2022-09-03T08:30:25;1.95;;;0.93;;
20945;SDS011;10632;51.276;7.116;2022-09-03T08:32:53;2.03;;;1.00;;
20945;SDS011;10632;51.276;7.116;2022-09-03T08:35:21;3.17;;;1.10;;
20945;SDS011;10632;51.276;7.116;2022-09-03T08:37:48;4.35;;;1.20;;
20945;SDS011;10632;51.276;7.116;2022-09-03T08:40:18;4.53;;;1.33;;
20945;SDS011;10632;51.276;7.116;2022-09-03T08:42:51;2.35;;;1.20;;
20945;SDS011;10632;51.276;7.116;2022-09-03T08:45:27;2.83;;;1.20;;
20945;SDS011;10632;51.276;7.116;2022-09-03T08:47:57;3.65;;;1.13;;
20945;SDS011;10632;51.276;7.116;2022-09-03T08:50:33;1.88;;;1.10;;
20945;SDS011;10632;51.276;7.116;2022-09-03T08:53:06;4.95;;;1.27;;
20945;SDS011;10632;51.276;7.116;2022-09-03T08:55:41;2.67;;;1.33;;
20945;SDS011;10632;51.276;7.116;2022-09-03T08:58:16;2.33;;;1.02;;
20945;SDS011;10632;51.276;7.116;2022-09-03T09:00:48;5.30;;;1.35;;
20945;SDS011;10632;51.276;7.116;2022-09-03T09:03:32;1.83;;;1.00;;
20945;SDS011;10632;51.276;7.116;2022-09-03T09:06:10;2.67;;;1.20;;
20945;SDS011;10632;51.276;7.116;2022-09-03T09:08:45;5.38;;;1.30;;
20945;SDS011;10632;51.276;7.116;2022-09-03T09:11:26;3.33;;;1.17;;
20945;SDS011;10632;51.276;7.116;2022-09-03T09:14:02;2.90;;;1.30;;
20945;SDS011;10632;51.276;7.116;2022-09-03T09:16:37;2.60;;;1.30;;
20945;SDS011;10632;51.276;7.116;2022-09-03T09:19:19;2.85;;;1.20;;
20945;SDS011;10632;51.276;7.116;2022-09-03T09:21:56;1.95;;;1.20;;
20945;SDS011;10632;51.276;7.116;2022-09-03T09:24:27;2.58;;;1.52;;
20945;SDS011;10632;51.276;7.116;2022-09-03T09:27:05;2.25;;;1.10;;
20945;SDS011;10632;51.276;7.116;2022-09-03T09:29:35;2.45;;;1.27;;
20945;SDS011;10632;51.276;7.116;2022-09-03T09:32:03;2.40;;;1.20;;
20945;SDS011;10632;51.276;7.116;2022-09-03T09:34:34;2.92;;;1.00;;
20945;SDS011;10632;51.276;7.116;2022-09-03T09:37:04;3.50;;;1.23;;
20945;SDS011;10632;51.276;7.116;2022-09-03T09:39:38;2.85;;;1.30;;
20945;SDS011;10632;51.276;7.116;2022-09-03T09:42:06;2.38;;;1.20;;
20945;SDS011;10632;51.276;7.116;2022-09-03T09:44:37;2.97;;;1.10;;
20945;SDS011;10632;51.276;7.116;2022-09-03T09:47:06;3.25;;;1.17;;
20945;SDS011;10632;51.276;7.116;2022-09-03T09:49:37;3.83;;;1.38;;
20945;SDS011;10632;51.276;7.116;2022-09-03T09:52:17;4.03;;;1.30;;
20945;SDS011;10632;51.276;7.116;2022-09-03T09:54:46;2.85;;;1.40;;
20945;SDS011;10632;51.276;7.116;2022-09-03T09:57:14;2.78;;;1.27;;
20945;SDS011;10632;51.276;7.116;2022-09-03T09:59:43;2.45;;;1.35;;
20945;SDS011;10632;51.276;7.116;2022-09-03T10:02:11;5.82;;;1.40;;
20945;SDS011;10632;51.276;7.116;2022-09-03T10:04:44;3.75;;;1.20;;
20945;SDS011;10632;51.276;7.116;2022-09-03T10:07:22;3.28;;;1.40;;
20945;SDS011;10632;51.276;7.116;2022-09-03T10:09:58;5.32;;;1.33;;
20945;SDS011;10632;51.276;7.116;2022-09-03T10:12:27;2.08;;;1.00;;
20945;SDS011;10632;51.276;7.116;2022-09-03T10:15:00;2.22;;;1.27;;
20945;SDS011;10632;51.276;7.116;2022-09-03T10:17:35;3.65;;;1.27;;
20945;SDS011;10632;51.276;7.116;2022-09-03T10:20:10;5.25;;;1.23;;
20945;SDS011;10632;51.276;7.116;2022-09-03T10:22:58;5.72;;;1.40;;
20945;SDS011;10632;51.276;7.116;2022-09-03T10:25:36;3.33;;;1.30;;
20945;SDS011;10632;51.276;7.116;2022-09-03T10:28:11;3.25;;;1.27;;
20945;SDS011;10632;51.276;7.116;2022-09-03T10:30:51;3.08;;;1.50;;
20945;SDS011;10632;51.276;7.116;2022-09-03T10:33:29;2.60;;;1.40;;
20945;SDS011;10632;51.276;7.116;2022-09-03T10:36:04;2.75;;;1.33;;
20945;SDS011;10632;51.276;7.116;2022-09-03T10:38:38;4.80;;;1.45;;
20945;SDS011;10632;51.276;7.116;2022-09-03T10:41:12;2.85;;;1.38;;
20945;SDS011;10632;51.276;7.116;2022-09-03T10:43:55;2.67;;;1.30;;
20945;SDS011;10632;51.276;7.116;2022-09-03T10:46:39;3.28;;;1.40;;
20945;SDS011;10632;51.276;7.116;2022-09-03T10:49:18;2.47;;;1.30;;
20945;SDS011;10632;51.276;7.116;2022-09-03T10:51:54;3.40;;;1.27;;
20945;SDS011;10632;51.276;7.116;2022-09-03T10:54:33;2.50;;;1.38;;
20945;SDS011;10632;51.276;7.116;2022-09-03T10:57:10;5.63;;;1.63;;
20945;SDS011;10632;51.276;7.116;2022-09-03T10:59:52;3.35;;;1.40;;
20945;SDS011;10632;51.276;7.116;2022-09-03T11:05:20;2.70;;;1.45;;
20945;SDS011;10632;51.276;7.116;2022-09-03T11:07:50;2.60;;;1.35;;
20945;SDS011;10632;51.276;7.116;2022-09-03T11:10:25;4.78;;;1.63;;
20945;SDS011;10632;51.276;7.116;2022-09-03T11:12:57;4.40;;;1.38;;
20945;SDS011;10632;51.276;7.116;2022-09-03T11:15:31;2.50;;;1.30;;
20945;SDS011;10632;51.276;7.116;2022-09-03T11:18:02;7.25;;;1.55;;
20945;SDS011;10632;51.276;7.116;2022-09-03T11:20:37;2.60;;;1.50;;
20945;SDS011;10632;51.276;7.116;2022-09-03T11:23:07;4.95;;;1.50;;
20945;SDS011;10632;51.276;7.116;2022-09-03T11:25:40;3.20;;;1.60;;
20945;SDS011;10632;51.276;7.116;2022-09-03T11:28:15;4.53;;;1.45;;
20945;SDS011;10632;51.276;7.116;2022-09-03T11:30:53;3.00;;;1.60;;
20945;SDS011;10632;51.276;7.116;2022-09-03T11:33:30;3.10;;;1.60;;
20945;SDS011;10632;51.276;7.116;2022-09-03T11:36:04;2.38;;;1.58;;
20945;SDS011;10632;51.276;7.116;2022-09-03T11:38:31;3.22;;;1.70;;
20945;SDS011;10632;51.276;7.116;2022-09-03T11:41:09;8.00;;;1.60;;
20945;SDS011;10632;51.276;7.116;2022-09-03T11:43:39;2.65;;;1.52;;
20945;SDS011;10632;51.276;7.116;2022-09-03T11:46:08;4.00;;;1.70;;
20945;SDS011;10632;51.276;7.116;2022-09-03T11:48:38;3.25;;;1.60;;
20945;SDS011;10632;51.276;7.116;2022-09-03T11:51:18;4.20;;;1.60;;
20945;SDS011;10632;51.276;7.116;2022-09-03T11:53:53;3.58;;;1.83;;
20945;SDS011;10632;51.276;7.116;2022-09-03T11:56:23;2.97;;;1.52;;
20945;SDS011;10632;51.276;7.116;2022-09-03T11:59:00;4.72;;;1.65;;
20945;SDS011;10632;51.276;7.116;2022-09-03T12:01:30;4.50;;;1.60;;
20945;SDS011;10632;51.276;7.116;2022-09-03T12:03:58;5.13;;;1.63;;
20945;SDS011;10632;51.276;7.116;2022-09-03T12:12:29;3.55;;;1.60;;
20945;SDS011;10632;51.276;7.116;2022-09-03T12:15:13;3.85;;;1.92;;
20945;SDS011;10632;51.276;7.116;2022-09-03T12:17:52;2.50;;;1.50;;
20945;SDS011;10632;51.276;7.116;2022-09-03T12:20:35;3.15;;;1.42;;
20945;SDS011;10632;51.276;7.116;2022-09-03T12:23:04;3.42;;;1.52;;
20945;SDS011;10632;51.276;7.116;2022-09-03T12:25:31;3.20;;;1.70;;
20945;SDS011;10632;51.276;7.116;2022-09-03T12:28:00;2.40;;;1.52;;
20945;SDS011;10632;51.276;7.116;2022-09-03T12:30:36;2.65;;;1.75;;
20945;SDS011;10632;51.276;7.116;2022-09-03T12:33:04;3.92;;;1.65;;
20945;SDS011;10632;51.276;7.116;2022-09-03T12:35:31;5.20;;;1.90;;
20945;SDS011;10632;51.276;7.116;2022-09-03T12:37:59;4.00;;;1.80;;
20945;SDS011;10632;51.276;7.116;2022-09-03T12:40:26;3.33;;;1.70;;
20945;SDS011;10632;51.276;7.116;2022-09-03T12:42:54;3.15;;;1.70;;
20945;SDS011;10632;51.276;7.116;2022-09-03T12:45:42;3.28;;;1.70;;
20945;SDS011;10632;51.276;7.116;2022-09-03T12:48:13;3.42;;;1.90;;
20945;SDS011;10632;51.276;7.116;2022-09-03T12:50:42;3.67;;;1.77;;
20945;SDS011;10632;51.276;7.116;2022-09-03T12:53:10;8.73;;;1.90;;
20945;SDS011;10632;51.276;7.116;2022-09-03T12:55:41;4.65;;;2.25;;
20945;SDS011;10632;51.276;7.116;2022-09-03T12:58:10;6.82;;;1.90;;
20945;SDS011;10632;51.276;7.116;2022-09-03T13:00:44;3.30;;;2.00;;
20945;SDS011;10632;51.276;7.116;2022-09-03T13:03:16;3.28;;;1.90;;
20945;SDS011;10632;51.276;7.116;2022-09-03T13:05:50;3.20;;;1.90;;
20945;SDS011;10632;51.276;7.116;2022-09-03T13:08:21;3.70;;;2.00;;
20945;SDS011;10632;51.276;7.116;2022-09-03T13:10:50;3.45;;;2.00;;
20945;SDS011;10632;51.276;7.116;2022-09-03T13:13:21;3.10;;;1.92;;
20945;SDS011;10632;51.276;7.116;2022-09-03T13:15:59;3.05;;;1.77;;
20945;SDS011;10632;51.276;7.116;2022-09-03T13:18:45;4.72;;;2.20;;
20945;SDS011;10632;51.276;7.116;2022-09-03T13:21:23;3.95;;;1.98;;
20945;SDS011;10632;51.276;7.116;2022-09-03T13:24:05;3.25;;;2.00;;
20945;SDS011;10632;51.276;7.116;2022-09-03T13:26:46;3.22;;;1.80;;
20945;SDS011;10632;51.276;7.116;2022-09-03T13:32:20;3.47;;;2.03;;
20945;SDS011;10632;51.276;7.116;2022-09-03T13:34:56;4.43;;;2.30;;
20945;SDS011;10632;51.276;7.116;2022-09-03T13:37:29;3.50;;;1.95;;
20945;SDS011;10632;51.276;7.116;2022-09-03T13:40:09;4.60;;;1.95;;
20945;SDS011;10632;51.276;7.116;2022-09-03T13:42:43;4.45;;;2.33;;
20945;SDS011;10632;51.276;7.116;2022-09-03T13:45:20;3.08;;;1.88;;
20945;SDS011;10632;51.276;7.116;2022-09-03T13:47:57;5.35;;;2.13;;
20945;SDS011;10632;51.276;7.116;2022-09-03T13:50:47;3.25;;;1.90;;
20945;SDS011;10632;51.276;7.116;2022-09-03T13:53:19;6.60;;;2.13;;
20945;SDS011;10632;51.276;7.116;2022-09-03T13:55:56;2.83;;;1.80;;
20945;SDS011;10632;51.276;7.116;2022-09-03T13:58:29;4.07;;;2.00;;
20945;SDS011;10632;51.276;7.116;2022-09-03T14:01:05;6.30;;;2.58;;
20945;SDS011;10632;51.276;7.116;2022-09-03T14:03:43;7.53;;;4.57;;
20945;SDS011;10632;51.276;7.116;2022-09-03T14:06:17;11.85;;;5.20;;
20945;SDS011;10632;51.276;7.116;2022-09-03T14:08:59;10.55;;;5.28;;
20945;SDS011;10632;51.276;7.116;2022-09-03T14:11:37;11.95;;;5.07;;
20945;SDS011;10632;51.276;7.116;2022-09-03T14:14:15;8.88;;;4.60;;
20945;SDS011;10632;51.276;7.116;2022-09-03T14:16:55;8.88;;;4.60;;
20945;SDS011;10632;51.276;7.116;2022-09-03T14:19:31;11.13;;;5.97;;
20945;SDS011;10632;51.276;7.116;2022-09-03T14:22:04;13.23;;;6.30;;
20945;SDS011;10632;51.276;7.116;2022-09-03T14:24:39;13.63;;;6.32;;
20945;SDS011;10632;51.276;7.116;2022-09-03T14:27:12;9.30;;;4.85;;
20945;SDS011;10632;51.276;7.116;2022-09-03T14:29:49;9.13;;;4.63;;
20945;SDS011;10632;51.276;7.116;2022-09-03T14:32:26;8.10;;;4.72;;
20945;SDS011;10632;51.276;7.116;2022-09-03T14:35:14;8.63;;;4.00;;
20945;SDS011;10632;51.276;7.116;2022-09-03T14:40:55;8.25;;;3.70;;
20945;SDS011;10632;51.276;7.116;2022-09-03T14:43:45;5.28;;;2.75;;
20945;SDS011;10632;51.276;7.116;2022-09-03T14:46:31;3.33;;;1.95;;
20945;SDS011;10632;51.276;7.116;2022-09-03T14:49:14;3.45;;;2.00;;
20945;SDS011;10632;51.276;7.116;2022-09-03T14:51:59;3.75;;;2.00;;
20945;SDS011;10632;51.276;7.116;2022-09-03T14:54:38;3.22;;;2.10;;
20945;SDS011;10632;51.276;7.116;2022-09-03T14:57:30;5.40;;;2.40;;
20945;SDS011;10632;51.276;7.116;2022-09-03T15:00:19;4.55;;;2.30;;
20945;SDS011;10632;51.276;7.116;2022-09-03T15:03:02;4.43;;;2.40;;
20945;SDS011;10632;51.276;7.116;2022-09-03T15:05:44;3.03;;;1.90;;
20945;SDS011;10632;51.276;7.116;2022-09-03T15:08:20;3.58;;;2.10;;
20945;SDS011;10632;51.276;7.116;2022-09-03T15:11:03;4.93;;;2.00;;
20945;SDS011;10632;51.276;7.116;2022-09-03T15:13:41;2.92;;;1.90;;
20945;SDS011;10632;51.276;7.116;2022-09-03T15:16:19;2.80;;;1.80;;
20945;SDS011;10632;51.276;7.116;2022-09-03T15:19:08;3.15;;;1.70;;
20945;SDS011;10632;51.276;7.116;2022-09-03T15:21:42;3.47;;;1.70;;
20945;SDS011;10632;51.276;7.116;2022-09-03T15:24:31;2.85;;;1.70;;
20945;SDS011;10632;51.276;7.116;2022-09-03T15:27:16;5.47;;;1.50;;
20945;SDS011;10632;51.276;7.116;2022-09-03T15:29:57;2.85;;;1.60;;
20945;SDS011;10632;51.276;7.116;2022-09-03T15:32:37;2.97;;;1.58;;
20945;SDS011;10632;51.276;7.116;2022-09-03T15:35:15;2.70;;;1.50;;
20945;SDS011;10632;51.276;7.116;2022-09-03T15:37:58;3.05;;;1.42;;